createdAt,value
2022-12-25T00:02:15.057Z,10.95
2022-12-25T00:04:42.291Z,11.05
2022-12-25T00:07:08.811Z,10.86
2022-12-25T00:09:35.257Z,11.03
2022-12-25T00:12:01.756Z,11.05
2022-12-25T00:14:28.216Z,11.01
2022-12-25T00:16:54.773Z,10.94
2022-12-25T00:19:21.352Z,10.94
2022-12-25T00:21:47.876Z,10.92
2022-12-25T00:24:14.367Z,11.01
2022-12-25T00:26:40.978Z,11.11
2022-12-25T00:29:07.444Z,11.15
2022-12-25T00:31:35.158Z,11.25
2022-12-25T00:34:01.674Z,11.25
2022-12-25T00:36:28.159Z,11.25
2022-12-25T00:38:54.735Z,11.28
2022-12-25T00:41:42.079Z,11.30
2022-12-25T00:44:10.838Z,11.34
2022-12-25T00:46:37.421Z,11.24
2022-12-25T00:49:04.007Z,11.23
2022-12-25T00:51:30.572Z,11.27
2022-12-25T00:53:57.086Z,11.27
2022-12-25T00:56:23.633Z,11.28
2022-12-25T00:58:50.212Z,11.22
2022-12-25T01:01:17.665Z,11.21
2022-12-25T01:03:44.539Z,11.24
2022-12-25T01:06:12.964Z,11.28
2022-12-25T01:09:01.495Z,11.23
2022-12-25T01:11:28.664Z,11.26
2022-12-25T01:13:55.246Z,11.14
2022-12-25T01:16:21.894Z,11.16
2022-12-25T01:18:48.518Z,11.11
2022-12-25T01:21:17.535Z,11.15
2022-12-25T01:23:45.462Z,11.13
2022-12-25T01:26:14.346Z,11.13
2022-12-25T01:28:41.540Z,11.15
2022-12-25T01:31:13.821Z,11.10
2022-12-25T01:33:41.548Z,11.11
2022-12-25T01:36:23.103Z,11.22
2022-12-25T01:38:51.208Z,11.17
2022-12-25T01:41:21.118Z,11.12
2022-12-25T01:43:59.751Z,11.06
2022-12-25T01:46:26.365Z,11.01
2022-12-25T01:48:56.223Z,11.10
2022-12-25T01:51:31.425Z,11.13
2022-12-25T01:54:01.850Z,11.10
2022-12-25T01:56:29.115Z,11.13
2022-12-25T01:58:57.739Z,11.18
2022-12-25T02:01:24.460Z,11.21
2022-12-25T02:03:56.771Z,11.23
2022-12-25T02:06:23.388Z,11.24
2022-12-25T02:08:50.172Z,11.30
2022-12-25T02:11:36.627Z,11.23
2022-12-25T02:14:03.328Z,11.18
2022-12-25T02:16:35.350Z,11.15
2022-12-25T02:19:48.625Z,10.97
2022-12-25T02:22:42.094Z,10.85
2022-12-25T02:25:29.398Z,10.77
2022-12-25T02:28:16.688Z,10.66
2022-12-25T02:30:50.588Z,10.57
2022-12-25T02:33:46.829Z,10.63
2022-12-25T02:36:20.708Z,10.61
2022-12-25T02:39:10.799Z,10.54
2022-12-25T02:41:40.904Z,10.37
2022-12-25T02:44:32.438Z,10.31
2022-12-25T02:47:18.361Z,10.39
2022-12-25T02:50:04.843Z,10.47
2022-12-25T02:52:50.648Z,10.45
2022-12-25T02:55:40.191Z,10.40
2022-12-25T02:58:30.063Z,10.33
2022-12-25T03:01:21.888Z,10.38
2022-12-25T03:04:10.094Z,10.34
2022-12-25T03:06:44.011Z,10.32
2022-12-25T03:09:33.612Z,10.27
2022-12-25T03:12:28.851Z,10.22
2022-12-25T03:15:13.605Z,10.19
2022-12-25T03:17:40.137Z,10.22
2022-12-25T03:20:26.200Z,10.33
2022-12-25T03:23:12.406Z,10.45
2022-12-25T03:25:57.740Z,10.46
2022-12-25T03:28:24.319Z,10.55
2022-12-25T03:31:17.217Z,10.71
2022-12-25T03:34:14.846Z,10.77
2022-12-25T03:37:12.071Z,10.79
2022-12-25T03:39:55.218Z,10.80
2022-12-25T03:43:00.149Z,10.74
2022-12-25T03:45:57.725Z,10.72
2022-12-25T03:48:45.050Z,10.78
2022-12-25T03:51:33.494Z,10.77
2022-12-25T03:54:24.267Z,10.85
2022-12-25T03:57:09.862Z,10.90
2022-12-25T03:59:55.245Z,10.88
2022-12-25T04:02:40.600Z,10.81
2022-12-25T04:05:26.202Z,10.84
2022-12-25T04:08:11.113Z,10.82
2022-12-25T04:10:55.951Z,10.83
2022-12-25T04:13:40.985Z,10.83
2022-12-25T04:16:26.250Z,10.85
2022-12-25T04:19:11.436Z,10.92
2022-12-25T04:21:56.355Z,10.95
2022-12-25T04:24:42.642Z,11.00
2022-12-25T04:27:27.609Z,10.86
2022-12-25T04:30:12.490Z,10.93
2022-12-25T04:32:57.959Z,10.93
2022-12-25T04:35:42.576Z,10.84
2022-12-25T04:38:09.137Z,10.89
2022-12-25T04:40:35.832Z,10.88
2022-12-25T04:43:02.318Z,10.82
2022-12-25T04:45:28.858Z,10.92
2022-12-25T04:47:55.704Z,10.91
2022-12-25T04:50:22.450Z,10.98
2022-12-25T04:52:48.957Z,10.88
2022-12-25T04:55:15.482Z,10.91
2022-12-25T04:57:42.110Z,10.86
2022-12-25T05:00:09.261Z,10.86
2022-12-25T05:02:36.117Z,10.77
2022-12-25T05:05:03.027Z,10.78
2022-12-25T05:07:29.719Z,10.72
2022-12-25T05:09:56.311Z,10.79
2022-12-25T05:12:22.879Z,10.88
2022-12-25T05:14:49.387Z,10.93
2022-12-25T05:17:15.862Z,10.95
2022-12-25T05:19:42.755Z,10.96
2022-12-25T05:22:09.554Z,11.07
2022-12-25T05:24:36.096Z,11.06
2022-12-25T05:27:02.607Z,11.05
2022-12-25T05:29:29.724Z,11.03
2022-12-25T05:31:56.384Z,11.09
2022-12-25T05:34:22.974Z,11.13
2022-12-25T05:36:49.473Z,11.06
2022-12-25T05:39:15.973Z,10.96
2022-12-25T05:41:42.503Z,10.91
2022-12-25T05:44:09.065Z,10.93
2022-12-25T05:46:35.690Z,11.08
2022-12-25T05:49:02.257Z,10.99
2022-12-25T05:51:28.878Z,10.96
2022-12-25T05:53:55.366Z,10.89
2022-12-25T05:56:21.925Z,10.94
2022-12-25T05:58:48.461Z,10.98
2022-12-25T06:01:23.119Z,10.99
2022-12-25T06:03:49.684Z,11.01
2022-12-25T06:06:16.655Z,11.04
2022-12-25T06:08:43.429Z,11.02
2022-12-25T06:11:12.614Z,10.87
2022-12-25T06:13:39.154Z,10.89
2022-12-25T06:16:07.916Z,11.01
2022-12-25T06:18:40.125Z,10.93
2022-12-25T06:21:11.466Z,10.95
2022-12-25T06:23:38.645Z,10.92
2022-12-25T06:26:12.736Z,10.86
2022-12-25T06:28:39.272Z,10.78
2022-12-25T06:31:16.393Z,10.68
2022-12-25T06:33:43.105Z,10.66
2022-12-25T06:36:13.686Z,10.78
2022-12-25T06:38:41.247Z,10.75
2022-12-25T06:41:13.079Z,10.85
2022-12-25T06:43:39.897Z,10.87
2022-12-25T06:46:09.923Z,10.82
2022-12-25T06:48:37.643Z,10.87
2022-12-25T06:51:07.805Z,10.75
2022-12-25T06:53:40.248Z,10.66
2022-12-25T06:56:15.634Z,10.76
2022-12-25T06:58:46.964Z,10.68
2022-12-25T07:01:39.647Z,10.67
2022-12-25T07:04:11.622Z,10.64
2022-12-25T07:06:38.108Z,10.73
2022-12-25T07:09:04.935Z,10.70
2022-12-25T07:11:31.451Z,10.66
2022-12-25T07:13:58.033Z,10.58
2022-12-25T07:16:24.574Z,10.60
2022-12-25T07:18:51.371Z,10.62
2022-12-25T07:21:19.941Z,10.64
2022-12-25T07:23:48.763Z,10.65
2022-12-25T07:26:15.744Z,10.56
2022-12-25T07:28:42.260Z,10.60
2022-12-25T07:31:14.247Z,10.61
2022-12-25T07:33:41.401Z,10.68
2022-12-25T07:36:12.875Z,10.75
2022-12-25T07:38:43.488Z,10.68
2022-12-25T07:41:12.833Z,10.77
2022-12-25T07:43:39.681Z,10.82
2022-12-25T07:46:07.334Z,10.86
2022-12-25T07:48:33.967Z,10.84
2022-12-25T07:51:05.371Z,10.87
2022-12-25T07:53:32.625Z,10.95
2022-12-25T07:56:11.714Z,11.00
2022-12-25T07:58:38.921Z,11.04
2022-12-25T08:01:08.284Z,11.03
2022-12-25T08:03:35.995Z,11.09
2022-12-25T08:06:05.379Z,11.15
2022-12-25T08:08:32.307Z,11.12
2022-12-25T08:10:58.818Z,11.18
2022-12-25T08:13:25.718Z,11.17
2022-12-25T08:16:00.925Z,11.25
2022-12-25T08:18:30.262Z,11.29
2022-12-25T08:21:01.982Z,11.30
2022-12-25T08:23:28.525Z,11.28
2022-12-25T08:26:04.643Z,11.36
2022-12-25T08:28:32.952Z,11.46
2022-12-25T08:30:59.600Z,11.44
2022-12-25T08:33:26.228Z,11.39
2022-12-25T08:35:52.698Z,11.46
2022-12-25T08:38:19.227Z,11.47
2022-12-25T08:40:45.749Z,11.56
2022-12-25T08:43:12.279Z,11.55
2022-12-25T08:45:38.936Z,11.58
2022-12-25T08:48:05.915Z,11.56
2022-12-25T08:50:32.422Z,11.56
2022-12-25T08:52:59.026Z,11.53
2022-12-25T08:55:25.666Z,11.56
2022-12-25T08:57:53.426Z,11.55
2022-12-25T09:00:20.292Z,11.45
2022-12-25T09:02:46.998Z,11.46
2022-12-25T09:05:13.735Z,11.49
2022-12-25T09:07:40.497Z,11.43
2022-12-25T09:10:07.713Z,11.46
2022-12-25T09:12:34.268Z,11.36
2022-12-25T09:15:00.858Z,11.42
2022-12-25T09:17:27.433Z,11.48
2022-12-25T09:19:53.995Z,11.46
2022-12-25T09:22:20.575Z,11.51
2022-12-25T09:24:47.064Z,11.55
2022-12-25T09:27:13.584Z,11.52
2022-12-25T09:29:40.490Z,11.64
2022-12-25T09:32:07.231Z,11.61
2022-12-25T09:34:35.271Z,11.61
2022-12-25T09:37:02.081Z,11.64
2022-12-25T09:39:28.810Z,11.65
2022-12-25T09:41:59.831Z,11.70
2022-12-25T09:44:34.794Z,11.74
2022-12-25T09:47:10.710Z,11.78
2022-12-25T09:49:52.229Z,11.87
2022-12-25T09:52:42.059Z,11.86
2022-12-25T09:55:21.171Z,11.93
2022-12-25T09:57:54.475Z,11.98
2022-12-25T10:00:23.499Z,12.03
2022-12-25T10:03:14.665Z,12.05
2022-12-25T10:06:20.842Z,12.14
2022-12-25T10:08:59.521Z,12.22
2022-12-25T10:11:45.460Z,12.27
2022-12-25T10:14:30.662Z,12.38
2022-12-25T10:17:26.336Z,12.41
2022-12-25T10:20:12.580Z,12.43
2022-12-25T10:22:45.504Z,12.38
2022-12-25T10:25:21.689Z,12.48
2022-12-25T10:27:59.510Z,12.45
2022-12-25T10:30:28.236Z,12.54
2022-12-25T10:32:57.278Z,12.50
2022-12-25T10:35:27.497Z,12.63
2022-12-25T10:38:02.075Z,12.60
2022-12-25T10:41:10.978Z,12.69
2022-12-25T10:43:43.726Z,12.74
2022-12-25T10:46:15.874Z,12.66
2022-12-25T10:48:47.584Z,12.66
2022-12-25T10:51:14.484Z,12.65
2022-12-25T10:53:43.385Z,12.73
2022-12-25T10:56:19.825Z,12.76
2022-12-25T10:58:46.664Z,12.81
2022-12-25T11:01:13.900Z,12.91
2022-12-25T11:03:45.308Z,12.97
2022-12-25T11:06:28.883Z,12.96
2022-12-25T11:08:59.646Z,12.93
2022-12-25T11:11:27.853Z,12.86
2022-12-25T11:13:58.205Z,12.86
2022-12-25T11:16:40.167Z,12.83
2022-12-25T11:19:27.980Z,12.83
2022-12-25T11:22:00.087Z,12.87
2022-12-25T11:24:33.600Z,12.81
2022-12-25T11:27:04.604Z,12.87
2022-12-25T11:29:43.529Z,12.95
2022-12-25T11:32:46.309Z,12.92
2022-12-25T11:35:18.324Z,12.86
2022-12-25T11:37:50.176Z,12.86
2022-12-25T11:40:21.519Z,12.96
2022-12-25T11:42:55.518Z,12.96
2022-12-25T11:45:45.417Z,13.07
2022-12-25T11:48:16.972Z,13.14
2022-12-25T11:50:57.123Z,13.13
2022-12-25T11:53:35.060Z,13.19
2022-12-25T11:56:08.101Z,13.23
2022-12-25T11:58:43.348Z,13.27
2022-12-25T12:01:25.807Z,13.28
2022-12-25T12:03:53.034Z,13.32
2022-12-25T12:06:56.574Z,13.47
2022-12-25T12:09:29.276Z,13.48
2022-12-25T12:12:08.727Z,13.59
2022-12-25T12:15:00.007Z,13.60
2022-12-25T12:17:26.696Z,13.56
2022-12-25T12:19:53.223Z,13.67
2022-12-25T12:22:25.618Z,13.64
2022-12-25T12:25:01.453Z,13.63
2022-12-25T12:27:35.143Z,13.78
2022-12-25T12:30:02.296Z,13.69
2022-12-25T12:32:43.000Z,13.73
2022-12-25T12:35:15.647Z,13.73
2022-12-25T12:37:42.529Z,13.76
2022-12-25T12:40:38.409Z,13.79
2022-12-25T12:43:07.010Z,13.85
2022-12-25T12:45:37.719Z,13.90
2022-12-25T12:48:24.928Z,13.85
2022-12-25T12:51:03.336Z,13.88
2022-12-25T12:53:32.354Z,13.94
2022-12-25T12:56:20.207Z,13.87
2022-12-25T12:58:53.334Z,13.79
2022-12-25T13:01:55.348Z,13.75
2022-12-25T13:04:50.122Z,13.80
2022-12-25T13:07:44.023Z,13.84
2022-12-25T13:10:25.707Z,13.79
2022-12-25T13:12:55.521Z,13.81
2022-12-25T13:15:24.962Z,13.88
2022-12-25T13:17:51.834Z,13.85
2022-12-25T13:20:39.987Z,13.81
2022-12-25T13:23:14.606Z,13.79
2022-12-25T13:25:41.113Z,13.87
2022-12-25T13:28:14.155Z,13.95
2022-12-25T13:30:40.854Z,13.88
2022-12-25T13:33:17.062Z,13.93
2022-12-25T13:35:44.302Z,13.97
2022-12-25T13:38:16.791Z,13.99
2022-12-25T13:41:10.899Z,13.90
2022-12-25T13:43:39.955Z,13.93
2022-12-25T13:46:06.816Z,13.96
2022-12-25T13:48:33.635Z,13.88
2022-12-25T13:51:02.079Z,13.84
2022-12-25T13:53:28.891Z,13.85
2022-12-25T13:55:56.120Z,13.85
2022-12-25T13:58:27.263Z,13.91
2022-12-25T14:00:57.500Z,13.95
2022-12-25T14:03:27.437Z,13.97
2022-12-25T14:06:02.823Z,13.97
2022-12-25T14:08:32.263Z,14.01
2022-12-25T14:11:03.677Z,14.03
2022-12-25T14:13:33.155Z,13.96
2022-12-25T14:16:00.450Z,13.94
2022-12-25T14:18:27.513Z,13.93
2022-12-25T14:21:05.499Z,13.95
2022-12-25T14:23:46.843Z,13.88
2022-12-25T14:26:18.719Z,13.84
2022-12-25T14:28:51.348Z,13.90
2022-12-25T14:31:19.133Z,13.84
2022-12-25T14:33:46.485Z,13.83
2022-12-25T14:36:14.356Z,13.94
2022-12-25T14:38:42.572Z,13.96
2022-12-25T14:41:44.019Z,13.97
2022-12-25T14:44:28.693Z,14.00
2022-12-25T14:47:05.626Z,13.92
2022-12-25T14:49:32.744Z,13.88
2022-12-25T14:52:00.026Z,13.85
2022-12-25T14:54:27.048Z,13.80
2022-12-25T14:56:56.194Z,13.90
2022-12-25T14:59:26.226Z,13.85
2022-12-25T15:02:03.687Z,13.82
2022-12-25T15:04:31.151Z,13.91
2022-12-25T15:07:01.010Z,13.82
2022-12-25T15:09:30.225Z,13.78
2022-12-25T15:11:57.015Z,13.78
2022-12-25T15:14:24.662Z,13.67
2022-12-25T15:16:58.220Z,13.59
2022-12-25T15:19:34.834Z,13.62
2022-12-25T15:22:03.951Z,13.68
2022-12-25T15:24:30.715Z,13.64
2022-12-25T15:27:00.830Z,13.63
2022-12-25T15:30:00.253Z,13.56
2022-12-25T15:32:24.263Z,13.51
2022-12-25T15:34:50.779Z,13.53
2022-12-25T15:37:18.490Z,13.45
2022-12-25T15:39:45.778Z,13.32
2022-12-25T15:42:17.906Z,13.40
2022-12-25T15:44:45.593Z,13.36
2022-12-25T15:47:13.971Z,13.26
2022-12-25T15:49:40.907Z,13.37
2022-12-25T15:52:11.358Z,13.29
2022-12-25T15:54:37.916Z,13.29
2022-12-25T15:57:06.410Z,13.35
2022-12-25T15:59:34.250Z,13.28
2022-12-25T16:02:01.669Z,13.23
2022-12-25T16:04:31.321Z,13.29
2022-12-25T16:06:58.683Z,13.16
2022-12-25T16:09:26.598Z,13.11
2022-12-25T16:11:53.157Z,13.05
2022-12-25T16:14:19.755Z,13.13
2022-12-25T16:16:46.558Z,13.11
2022-12-25T16:19:13.126Z,13.14
2022-12-25T16:21:42.881Z,13.02
2022-12-25T16:24:09.893Z,13.11
2022-12-25T16:26:36.496Z,13.02
2022-12-25T16:29:07.177Z,13.03
2022-12-25T16:31:35.482Z,12.83
2022-12-25T16:34:02.236Z,12.78
2022-12-25T16:36:28.727Z,12.81
2022-12-25T16:38:55.366Z,12.73
2022-12-25T16:41:21.920Z,12.74
2022-12-25T16:43:48.663Z,12.70
2022-12-25T16:46:18.457Z,12.70
2022-12-25T16:48:45.105Z,12.69
2022-12-25T16:51:20.003Z,12.75
2022-12-25T16:53:47.064Z,12.68
2022-12-25T16:56:20.671Z,12.71
2022-12-25T16:58:47.894Z,12.58
2022-12-25T17:01:17.538Z,12.58
2022-12-25T17:03:44.226Z,12.50
2022-12-25T17:06:19.893Z,12.58
2022-12-25T17:08:47.231Z,12.55
2022-12-25T17:11:13.990Z,12.59
2022-12-25T17:13:40.890Z,12.55
2022-12-25T17:16:19.235Z,12.51
2022-12-25T17:18:46.326Z,12.52
2022-12-25T17:21:14.623Z,12.50
2022-12-25T17:23:41.300Z,12.41
2022-12-25T17:26:08.650Z,12.39
2022-12-25T17:28:35.189Z,12.34
2022-12-25T17:31:08.562Z,12.30
2022-12-25T17:33:36.361Z,12.29
2022-12-25T17:36:09.202Z,12.30
2022-12-25T17:38:36.121Z,12.31
2022-12-25T17:41:05.553Z,12.30
2022-12-25T17:43:33.179Z,12.39
2022-12-25T17:46:11.115Z,12.30
2022-12-25T17:48:38.049Z,12.30
2022-12-25T17:51:06.839Z,12.31
2022-12-25T17:53:41.053Z,12.38
2022-12-25T17:56:09.643Z,12.28
2022-12-25T17:58:37.982Z,12.28
2022-12-25T18:01:09.903Z,12.22
2022-12-25T18:03:36.927Z,12.30
2022-12-25T18:06:05.120Z,12.30
2022-12-25T18:08:38.623Z,12.34
2022-12-25T18:11:10.086Z,12.25
2022-12-25T18:13:37.202Z,12.29
2022-12-25T18:16:05.830Z,12.32
2022-12-25T18:18:32.619Z,12.27
2022-12-25T18:20:59.203Z,12.33
2022-12-25T18:23:25.745Z,12.20
2022-12-25T18:25:52.835Z,12.39
2022-12-25T18:28:19.495Z,12.28
2022-12-25T18:30:47.325Z,12.29
2022-12-25T18:33:13.931Z,12.41
2022-12-25T18:35:42.877Z,12.39
2022-12-25T18:38:11.723Z,12.32
2022-12-25T18:40:45.570Z,12.28
2022-12-25T18:43:12.717Z,12.18
2022-12-25T18:45:39.315Z,12.21
2022-12-25T18:48:06.616Z,12.19
2022-12-25T18:50:34.768Z,12.12
2022-12-25T18:53:02.199Z,12.16
2022-12-25T18:55:28.868Z,12.04
2022-12-25T18:57:56.236Z,12.13
2022-12-25T19:00:23.484Z,12.04
2022-12-25T19:02:50.812Z,12.17
2022-12-25T19:05:17.536Z,12.10
2022-12-25T19:07:44.355Z,12.09
2022-12-25T19:10:11.048Z,12.05
2022-12-25T19:12:37.688Z,12.18
2022-12-25T19:15:04.678Z,12.12
2022-12-25T19:17:32.080Z,12.11
2022-12-25T19:19:59.023Z,12.12
2022-12-25T19:22:25.781Z,12.14
2022-12-25T19:24:52.360Z,12.11
2022-12-25T19:27:18.931Z,12.06
2022-12-25T19:29:45.592Z,12.08
2022-12-25T19:32:12.172Z,12.12
2022-12-25T19:34:38.657Z,12.04
2022-12-25T19:37:05.226Z,12.16
2022-12-25T19:39:31.802Z,12.16
2022-12-25T19:41:58.307Z,12.22
2022-12-25T19:44:24.896Z,12.29
2022-12-25T19:46:51.423Z,12.39
2022-12-25T19:49:17.959Z,12.39
2022-12-25T19:51:46.386Z,12.51
2022-12-25T19:54:16.304Z,12.47
2022-12-25T19:56:43.362Z,12.62
2022-12-25T19:59:11.901Z,12.51
2022-12-25T20:01:39.120Z,12.54
2022-12-25T20:04:08.750Z,12.53
2022-12-25T20:06:38.257Z,12.50
2022-12-25T20:09:10.891Z,12.45
2022-12-25T20:11:37.739Z,12.45
2022-12-25T20:14:05.415Z,12.46
2022-12-25T20:16:32.519Z,12.46
2022-12-25T20:18:59.229Z,12.49
2022-12-25T20:21:30.065Z,12.42
2022-12-25T20:23:57.319Z,12.41
2022-12-25T20:26:27.225Z,12.42
2022-12-25T20:28:53.814Z,12.40
2022-12-25T20:31:21.952Z,12.47
2022-12-25T20:33:48.751Z,12.43
2022-12-25T20:36:15.754Z,12.51
2022-12-25T20:38:42.435Z,12.46
2022-12-25T20:41:29.468Z,12.60
2022-12-25T20:43:56.741Z,12.61
2022-12-25T20:46:24.185Z,12.57
2022-12-25T20:48:51.870Z,12.59
2022-12-25T20:51:23.810Z,12.64
2022-12-25T20:53:51.238Z,12.65
2022-12-25T20:56:20.424Z,12.71
2022-12-25T20:58:47.308Z,12.76
2022-12-25T21:01:17.970Z,12.80
2022-12-25T21:03:45.355Z,12.67
2022-12-25T21:06:13.063Z,12.60
2022-12-25T21:08:43.503Z,12.49
2022-12-25T21:11:11.164Z,12.53
2022-12-25T21:13:40.440Z,12.61
2022-12-25T21:16:12.149Z,12.65
2022-12-25T21:18:39.084Z,12.53
2022-12-25T21:21:07.611Z,12.43
2022-12-25T21:23:36.141Z,12.43
2022-12-25T21:26:15.601Z,12.39
2022-12-25T21:28:42.377Z,12.20
2022-12-25T21:31:10.296Z,12.24
2022-12-25T21:33:52.221Z,12.16
2022-12-25T21:36:20.188Z,12.15
2022-12-25T21:38:47.190Z,12.16
2022-12-25T21:41:15.324Z,12.19
2022-12-25T21:43:42.969Z,12.21
2022-12-25T21:46:14.444Z,12.20
2022-12-25T21:48:41.909Z,12.19
2022-12-25T21:51:36.885Z,12.21
2022-12-25T21:54:04.625Z,12.16
2022-12-25T21:56:34.420Z,12.20
2022-12-25T21:59:07.438Z,12.16
2022-12-25T22:01:34.370Z,12.11
2022-12-25T22:04:06.239Z,12.13
2022-12-25T22:06:51.685Z,12.09
2022-12-25T22:09:18.562Z,12.10
2022-12-25T22:12:03.687Z,12.14
2022-12-25T22:14:52.215Z,12.15
2022-12-25T22:17:50.587Z,12.15
2022-12-25T22:20:22.460Z,12.18
2022-12-25T22:22:49.618Z,12.19
2022-12-25T22:25:17.366Z,12.35
2022-12-25T22:27:45.599Z,12.36
2022-12-25T22:30:16.444Z,12.33
2022-12-25T22:32:43.548Z,12.25
2022-12-25T22:35:12.363Z,12.37
2022-12-25T22:37:40.110Z,12.35
2022-12-25T22:40:08.273Z,12.31
2022-12-25T22:42:35.109Z,12.40
2022-12-25T22:45:02.407Z,12.44
2022-12-25T22:47:29.049Z,12.34
2022-12-25T22:49:55.674Z,12.48
2022-12-25T22:52:22.597Z,12.44
2022-12-25T22:54:49.083Z,12.48
2022-12-25T22:57:15.617Z,12.52
2022-12-25T22:59:42.233Z,12.55
2022-12-25T23:02:08.928Z,12.56
2022-12-25T23:04:35.756Z,12.60
2022-12-25T23:07:02.330Z,12.65
2022-12-25T23:09:28.904Z,12.61
2022-12-25T23:11:56.533Z,12.63
2022-12-25T23:14:38.757Z,12.68
2022-12-25T23:17:30.955Z,12.68
2022-12-25T23:20:17.571Z,12.70
2022-12-25T23:23:03.078Z,12.69
2022-12-25T23:25:48.903Z,12.71
2022-12-25T23:28:35.636Z,12.74
2022-12-25T23:31:02.248Z,12.73
2022-12-25T23:33:28.882Z,12.82
2022-12-25T23:35:56.021Z,12.81
2022-12-25T23:38:22.634Z,12.91
2022-12-25T23:40:49.148Z,12.92
2022-12-25T23:43:15.666Z,12.93
2022-12-25T23:45:42.272Z,12.85
2022-12-25T23:48:08.823Z,12.78
2022-12-25T23:50:35.313Z,12.80
2022-12-25T23:53:01.938Z,12.73
2022-12-25T23:55:28.441Z,12.74
2022-12-25T23:57:54.943Z,12.81
